Time;durP1;ratioP1;P1;durP2;ratioP2;P2;SDS_P1;SDS_P2;PMS_P1;PMS_P2;Temp;Humidity;BMP_temperature;BMP_pressure;BME280_temperature;BME280_humidity;BME280_pressure;Samples;Min_cycle;Max_cycle;Signal;HPM_P1;HPM_P2
2021/07/16 00:00:18;;;;;;;0.00;0.00;;;19.40;99.90;;;;;;5049186;28;20193;-72
2021/07/16 00:02:46;;;;;;;10.90;1.50;;;19.40;99.90;;;;;;5045264;28;20237;-71
2021/07/16 00:05:13;;;;;;;0.30;0.30;;;19.40;99.90;;;;;;5030240;28;20217;-72
2021/07/16 00:07:40;;;;;;;0.75;0.50;;;19.30;99.90;;;;;;5034720;28;20178;-72
2021/07/16 00:10:07;;;;;;;0.00;0.00;;;19.30;99.90;;;;;;5050096;28;20261;-71
2021/07/16 00:12:35;;;;;;;0.38;0.38;;;19.20;99.90;;;;;;5046714;28;20227;-71
2021/07/16 00:15:01;;;;;;;0.20;0.20;;;19.20;99.90;;;;;;5048716;28;20173;-71
2021/07/16 00:17:27;;;;;;;0.32;0.30;;;19.20;99.90;;;;;;5051014;28;20173;-73
2021/07/16 00:19:53;;;;;;;0.20;0.20;;;19.20;99.90;;;;;;5059173;28;20192;-72
2021/07/16 00:22:22;;;;;;;0.30;0.30;;;19.20;99.90;;;;;;5048659;28;20170;-71
2021/07/16 00:24:48;;;;;;;0.10;0.10;;;19.30;99.90;;;;;;5048534;28;20213;-72
2021/07/16 00:27:15;;;;;;;0.35;0.30;;;19.30;99.90;;;;;;5049890;28;20157;-73
2021/07/16 00:29:41;;;;;;;0.10;0.10;;;19.30;99.90;;;;;;5049789;28;20197;-72
2021/07/16 00:32:07;;;;;;;0.20;0.20;;;19.30;99.90;;;;;;5048485;28;20212;-71
2021/07/16 00:34:33;;;;;;;0.20;0.20;;;19.30;99.90;;;;;;5049729;28;20184;-72
2021/07/16 00:36:58;;;;;;;0.00;0.00;;;19.20;99.90;;;;;;5049797;28;20153;-71
2021/07/16 00:39:25;;;;;;;0.30;0.30;;;19.10;99.90;;;;;;5049814;28;20185;-71
2021/07/16 00:41:51;;;;;;;4.13;0.30;;;19.10;99.90;;;;;;5048437;28;20180;-71
2021/07/16 00:46:58;;;;;;;0.10;0.10;;;19.10;99.90;;;;;;5106517;28;20583;-71
2021/07/16 00:49:24;;;;;;;0.47;0.47;;;18.90;99.90;;;;;;5106584;28;20183;-71
2021/07/16 00:51:50;;;;;;;0.70;0.57;;;18.80;99.90;;;;;;5106639;28;20170;-71
2021/07/16 00:54:17;;;;;;;0.30;0.30;;;18.90;99.90;;;;;;5106395;28;20166;-72
2021/07/16 00:56:43;;;;;;;0.03;0.03;;;18.90;99.90;;;;;;5105014;28;20197;-71
2021/07/16 00:59:13;;;;;;;0.10;0.10;;;18.90;99.90;;;;;;5105107;28;20183;-71
2021/07/16 01:01:39;;;;;;;0.30;0.30;;;18.80;99.90;;;;;;5106424;28;20173;-71
2021/07/16 01:04:05;;;;;;;0.32;0.32;;;18.70;99.90;;;;;;5106407;28;20616;-72
2021/07/16 01:06:30;;;;;;;0.20;0.20;;;18.70;99.90;;;;;;5104942;28;20221;-70
2021/07/16 01:08:56;;;;;;;0.50;0.50;;;18.60;99.90;;;;;;5106212;28;20159;-72
2021/07/16 01:11:22;;;;;;;0.55;0.55;;;18.60;99.90;;;;;;5104802;28;20190;-71
2021/07/16 01:13:49;;;;;;;0.20;0.15;;;18.60;99.90;;;;;;5105966;28;20163;-69
2021/07/16 01:16:15;;;;;;;1.52;1.23;;;18.60;99.90;;;;;;5105979;28;20286;-71
2021/07/16 01:18:41;;;;;;;0.05;0.05;;;18.50;99.90;;;;;;5099300;28;20171;-72
2021/07/16 01:21:07;;;;;;;0.10;0.10;;;18.60;99.90;;;;;;5106049;28;20160;-72
2021/07/16 01:23:34;;;;;;;0.30;0.30;;;18.60;99.90;;;;;;5105860;28;20181;-72
2021/07/16 01:26:00;;;;;;;0.40;0.40;;;18.60;99.90;;;;;;5104523;28;20633;-70
2021/07/16 01:28:26;;;;;;;5.70;0.95;;;18.60;99.90;;;;;;5104475;28;20167;-72
2021/07/16 01:30:53;;;;;;;0.17;0.17;;;18.60;99.90;;;;;;5105753;28;20162;-72
2021/07/16 01:33:21;;;;;;;0.10;0.10;;;18.60;99.90;;;;;;5104396;28;20168;-71
2021/07/16 01:35:48;;;;;;;3.63;0.43;;;18.60;99.90;;;;;;5105644;28;20202;-72
2021/07/16 01:38:14;;;;;;;3.83;0.50;;;18.60;99.90;;;;;;5105590;28;20170;-72
2021/07/16 01:40:40;;;;;;;4.65;0.98;;;18.60;99.90;;;;;;5104335;28;20179;-72
2021/07/16 01:43:07;;;;;;;0.15;0.15;;;18.70;99.90;;;;;;5105540;28;20167;-73
2021/07/16 01:45:38;;;;;;;0.20;0.20;;;18.80;99.90;;;;;;5105055;28;20249;-72
2021/07/16 01:48:14;;;;;;;0.32;0.32;;;18.90;99.90;;;;;;5105538;28;20313;-72
2021/07/16 01:50:42;;;;;;;0.22;0.22;;;19.10;99.90;;;;;;5105381;28;20151;-73
2021/07/16 01:53:10;;;;;;;0.10;0.10;;;19.20;99.90;;;;;;5105417;28;20164;-72
2021/07/16 01:55:37;;;;;;;0.10;0.10;;;19.20;99.90;;;;;;5105350;28;20262;-72
2021/07/16 01:58:09;;;;;;;0.03;0.03;;;19.10;99.90;;;;;;5093270;28;20160;-71
2021/07/16 02:00:40;;;;;;;0.30;0.30;;;19.10;99.90;;;;;;5091653;28;20174;-70
2021/07/16 02:03:08;;;;;;;0.65;0.28;;;19.10;99.90;;;;;;5091714;28;20156;-72
2021/07/16 02:05:40;;;;;;;0.35;0.35;;;19.10;99.90;;;;;;5090153;28;20207;-71
2021/07/16 02:08:21;;;;;;;0.10;0.10;;;19.20;99.90;;;;;;5091513;28;20160;-72
2021/07/16 02:10:54;;;;;;;0.20;0.20;;;19.30;99.90;;;;;;5091608;28;20176;-72
2021/07/16 02:13:20;;;;;;;0.30;0.30;;;19.30;99.90;;;;;;5091347;28;20172;-72
2021/07/16 02:15:48;;;;;;;0.22;0.22;;;19.20;99.90;;;;;;5089919;28;20271;-71
2021/07/16 02:18:15;;;;;;;0.52;0.35;;;19.10;99.90;;;;;;5091264;28;20164;-71
2021/07/16 02:20:42;;;;;;;0.73;0.73;;;19.10;99.90;;;;;;5091213;28;20192;-72
2021/07/16 02:23:13;;;;;;;0.20;0.20;;;19.10;99.90;;;;;;5089276;28;20180;-71
2021/07/16 02:25:39;;;;;;;0.32;0.32;;;19.10;99.90;;;;;;5090161;28;20187;-71
2021/07/16 02:28:18;;;;;;;0.20;0.20;;;19.00;99.90;;;;;;5091201;28;20526;-71
2021/07/16 02:30:44;;;;;;;0.38;0.38;;;18.90;99.90;;;;;;5089654;28;20192;-71
2021/07/16 02:33:11;;;;;;;0.10;0.10;;;18.80;99.90;;;;;;5091063;28;20186;-71
2021/07/16 02:35:37;;;;;;;0.30;0.30;;;18.80;99.90;;;;;;5090882;28;20247;-72
2021/07/16 02:38:04;;;;;;;0.30;0.28;;;18.70;99.90;;;;;;5090897;28;20164;-71
2021/07/16 02:40:31;;;;;;;0.10;0.10;;;18.70;99.90;;;;;;5089496;28;20203;-71
2021/07/16 02:42:58;;;;;;;0.20;0.20;;;18.70;99.90;;;;;;5090777;28;20171;-72
2021/07/16 02:45:24;;;;;;;0.55;0.55;;;18.70;99.90;;;;;;5090626;28;20234;-72
2021/07/16 02:47:51;;;;;;;0.17;0.17;;;18.70;99.90;;;;;;5090641;28;20246;-71
2021/07/16 02:50:25;;;;;;;0.30;0.30;;;18.70;99.90;;;;;;5088528;28;20203;-71
2021/07/16 02:52:52;;;;;;;0.40;0.40;;;18.70;99.90;;;;;;5089311;28;20251;-71
2021/07/16 02:55:19;;;;;;;0.20;0.20;;;18.70;99.90;;;;;;5089032;28;20164;-71
2021/07/16 02:57:46;;;;;;;0.00;0.00;;;18.70;99.90;;;;;;5090551;28;20156;-71
2021/07/16 03:00:15;;;;;;;0.17;0.17;;;18.60;99.90;;;;;;5090452;28;20192;-71
2021/07/16 03:02:43;;;;;;;1.65;0.80;;;18.60;99.90;;;;;;5089085;28;20168;-71
2021/07/16 03:05:11;;;;;;;1.17;0.90;;;18.70;99.90;;;;;;5090401;28;20198;-72
2021/07/16 03:07:38;;;;;;;0.17;0.17;;;18.70;99.90;;;;;;5090271;28;20590;-71
2021/07/16 03:10:10;;;;;;;0.20;0.20;;;18.50;99.90;;;;;;5089277;28;20183;-71
2021/07/16 03:12:37;;;;;;;0.15;0.15;;;18.40;99.90;;;;;;5090272;28;20152;-71
2021/07/16 03:15:08;;;;;;;6.03;0.50;;;18.40;99.90;;;;;;5088869;28;20164;-71
2021/07/16 03:17:37;;;;;;;0.17;0.17;;;18.50;99.90;;;;;;5089975;28;20171;-71
2021/07/16 03:20:07;;;;;;;0.22;0.22;;;18.50;99.90;;;;;;5089784;28;20191;-70
2021/07/16 03:22:33;;;;;;;3.17;0.60;;;18.40;99.90;;;;;;5088682;28;20168;-71
2021/07/16 03:24:59;;;;;;;0.28;0.28;;;18.30;99.90;;;;;;5088594;28;20286;-71
2021/07/16 03:27:25;;;;;;;5.28;1.27;;;18.40;99.90;;;;;;5088786;28;20160;-71
2021/07/16 03:29:51;;;;;;;0.40;0.40;;;18.40;99.90;;;;;;5089849;28;20321;-71
2021/07/16 03:32:17;;;;;;;4.03;0.60;;;18.50;99.90;;;;;;5089860;28;20243;-72
2021/07/16 03:34:43;;;;;;;3.28;1.80;;;18.50;99.90;;;;;;5089861;28;20598;-72
2021/07/16 03:37:09;;;;;;;1.38;0.80;;;18.50;99.90;;;;;;5089884;28;20559;-72
2021/07/16 03:39:34;;;;;;;0.45;0.45;;;18.70;99.90;;;;;;5089473;28;20184;-72
2021/07/16 03:42:00;;;;;;;0.43;0.43;;;18.70;99.90;;;;;;5089651;28;20198;-72
2021/07/16 03:44:26;;;;;;;0.10;0.10;;;18.80;99.90;;;;;;5089606;28;20565;-72
2021/07/16 03:46:52;;;;;;;0.15;0.15;;;18.90;99.90;;;;;;5089167;28;20623;-72
2021/07/16 03:49:18;;;;;;;1.02;0.93;;;18.90;99.90;;;;;;5089216;28;20163;-72
2021/07/16 03:51:44;;;;;;;0.00;0.00;;;19.00;99.90;;;;;;5089438;28;20163;-72
2021/07/16 03:54:10;;;;;;;0.20;0.20;;;19.00;99.90;;;;;;5089585;28;20164;-71
2021/07/16 03:56:36;;;;;;;0.63;0.40;;;19.10;99.90;;;;;;5089223;28;20164;-71
2021/07/16 03:59:01;;;;;;;0.10;0.10;;;19.30;99.90;;;;;;5087998;28;20200;-71
2021/07/16 04:01:27;;;;;;;4.30;0.43;;;19.50;99.90;;;;;;5087794;28;20207;-72
2021/07/16 04:03:53;;;;;;;0.10;0.10;;;19.90;99.90;;;;;;5087988;28;20195;-72
2021/07/16 04:06:20;;;;;;;0.40;0.40;;;20.30;99.90;;;;;;5087674;28;20202;-72
2021/07/16 04:08:47;;;;;;;24.13;1.45;;;20.70;99.90;;;;;;5089197;28;20156;-71
2021/07/16 04:11:13;;;;;;;0.20;0.20;;;20.60;99.90;;;;;;5088936;28;20198;-72
2021/07/16 04:13:39;;;;;;;0.10;0.10;;;20.40;99.90;;;;;;5089154;28;20164;-71
2021/07/16 04:16:05;;;;;;;0.75;0.75;;;20.20;99.90;;;;;;5088952;28;20182;-71
2021/07/16 04:18:31;;;;;;;0.50;0.50;;;20.30;99.90;;;;;;5088844;28;20621;-72
2021/07/16 04:20:56;;;;;;;0.45;0.40;;;20.30;99.90;;;;;;5088737;28;20248;-71
2021/07/16 04:23:22;;;;;;;0.65;0.65;;;20.70;99.90;;;;;;5089051;28;20171;-72
2021/07/16 04:25:48;;;;;;;0.10;0.10;;;20.90;99.90;;;;;;5089031;28;20219;-72
2021/07/16 04:28:15;;;;;;;0.88;0.85;;;20.70;99.90;;;;;;5088979;28;20222;-72
2021/07/16 04:30:41;;;;;;;0.30;0.25;;;20.30;99.90;;;;;;5088821;28;20183;-72
2021/07/16 04:33:09;;;;;;;0.35;0.32;;;20.00;99.90;;;;;;5088829;28;20157;-72
2021/07/16 04:35:36;;;;;;;1.15;1.15;;;20.20;99.90;;;;;;5089016;28;20170;-72
2021/07/16 04:38:02;;;;;;;0.60;0.60;;;20.60;99.90;;;;;;5088788;28;20213;-72
2021/07/16 04:40:30;;;;;;;0.70;0.70;;;21.10;99.90;;;;;;5088739;28;20191;-72
2021/07/16 04:42:56;;;;;;;0.40;0.40;;;21.50;99.90;;;;;;5088636;28;20167;-72
2021/07/16 04:45:23;;;;;;;0.63;0.38;;;21.60;99.90;;;;;;5088131;28;20249;-73
2021/07/16 04:47:49;;;;;;;0.30;0.30;;;21.60;99.90;;;;;;5088714;28;20168;-72
2021/07/16 04:50:16;;;;;;;0.73;0.73;;;21.80;99.90;;;;;;5088652;28;20217;-73
2021/07/16 04:52:47;;;;;;;1.65;1.55;;;21.80;99.90;;;;;;5088621;28;20163;-72
2021/07/16 04:55:14;;;;;;;0.15;0.15;;;21.90;99.90;;;;;;5087420;28;20160;-72
2021/07/16 04:57:40;;;;;;;0.68;0.63;;;21.50;99.90;;;;;;5088448;28;20222;-73
2021/07/16 05:00:08;;;;;;;0.30;0.30;;;21.50;99.90;;;;;;5087387;28;20199;-72
2021/07/16 05:02:34;;;;;;;0.30;0.30;;;22.10;99.90;;;;;;5088666;28;20152;-72
2021/07/16 05:04:59;;;;;;;0.70;0.70;;;22.70;99.90;;;;;;5088241;28;20188;-72
2021/07/16 05:07:25;;;;;;;0.85;0.85;;;22.70;99.90;;;;;;5088343;28;20216;-71
2021/07/16 05:09:51;;;;;;;1.23;1.13;;;22.50;99.90;;;;;;5088378;28;20255;-72
2021/07/16 05:12:17;;;;;;;1.77;0.68;;;22.90;99.90;;;;;;5087215;28;20613;-72
2021/07/16 05:14:43;;;;;;;0.25;0.25;;;23.90;99.90;;;;;;5087103;28;20163;-72
2021/07/16 05:17:09;;;;;;;0.25;0.25;;;24.60;99.90;;;;;;5088429;28;20155;-72
2021/07/16 05:19:35;;;;;;;3.85;1.10;;;25.10;99.90;;;;;;5088222;28;20191;-73
2021/07/16 05:22:01;;;;;;;0.40;0.40;;;25.80;99.90;;;;;;5088504;28;20170;-73
2021/07/16 05:24:28;;;;;;;4.80;1.58;;;26.30;99.90;;;;;;5088460;28;20156;-74
2021/07/16 05:26:54;;;;;;;0.50;0.50;;;26.30;99.90;;;;;;5088284;28;20202;-73
2021/07/16 05:29:20;;;;;;;2.00;0.95;;;25.50;99.90;;;;;;5086735;28;20163;-74
2021/07/16 05:31:46;;;;;;;1.75;1.65;;;24.80;99.90;;;;;;5088619;28;20540;-74
2021/07/16 05:34:12;;;;;;;0.98;0.80;;;24.70;99.90;;;;;;5091998;28;20164;-74
2021/07/16 05:36:37;;;;;;;0.93;0.80;;;25.40;99.90;;;;;;5092014;28;20156;-73
2021/07/16 05:39:05;;;;;;;0.17;0.17;;;24.80;99.90;;;;;;5092048;28;20180;-73
2021/07/16 05:41:32;;;;;;;1.25;0.77;;;24.80;99.90;;;;;;5090401;28;20226;-73
2021/07/16 05:43:58;;;;;;;0.50;0.50;;;25.00;99.90;;;;;;5091564;28;20229;-73
2021/07/16 05:46:27;;;;;;;0.77;0.77;;;25.20;99.90;;;;;;5091343;28;20219;-73
2021/07/16 05:48:52;;;;;;;0.52;0.52;;;25.30;99.90;;;;;;5091646;28;20155;-73
2021/07/16 05:51:18;;;;;;;0.50;0.50;;;25.20;99.90;;;;;;5090292;28;20190;-73
2021/07/16 05:53:44;;;;;;;0.40;0.32;;;24.70;99.90;;;;;;5091552;28;20160;-73
2021/07/16 05:56:10;;;;;;;0.55;0.50;;;24.10;99.90;;;;;;5091245;28;20643;-73
2021/07/16 05:58:36;;;;;;;2.70;0.68;;;23.30;99.90;;;;;;5091568;28;20274;-73
2021/07/16 06:01:02;;;;;;;0.52;0.45;;;23.00;99.90;;;;;;5091584;28;20191;-74
2021/07/16 06:03:28;;;;;;;0.30;0.30;;;23.00;99.90;;;;;;5091410;28;20170;-73
2021/07/16 06:05:54;;;;;;;0.43;0.43;;;22.90;99.90;;;;;;5091429;28;20198;-73
2021/07/16 06:08:20;;;;;;;0.15;0.15;;;23.00;99.90;;;;;;5091299;28;20216;-73
2021/07/16 06:10:45;;;;;;;0.40;0.40;;;23.00;99.90;;;;;;5091402;28;20266;-73
2021/07/16 06:13:12;;;;;;;0.28;0.28;;;23.10;99.90;;;;;;5091439;28;20151;-73
2021/07/16 06:15:38;;;;;;;2.17;1.85;;;23.00;99.90;;;;;;5091028;28;20167;-73
2021/07/16 06:18:04;;;;;;;0.50;0.47;;;22.80;99.90;;;;;;5089859;28;20179;-72
2021/07/16 06:20:30;;;;;;;0.20;0.20;;;22.70;99.90;;;;;;5090760;28;20194;-74
2021/07/16 06:22:56;;;;;;;0.47;0.25;;;22.80;99.90;;;;;;5089657;28;20202;-74
2021/07/16 06:25:22;;;;;;;0.10;0.10;;;22.90;99.90;;;;;;5091033;28;20187;-74
2021/07/16 06:27:48;;;;;;;0.25;0.22;;;22.90;99.90;;;;;;5091118;28;20182;-72
2021/07/16 06:30:15;;;;;;;1.10;0.30;;;22.90;99.90;;;;;;5088166;28;20242;-72
2021/07/16 06:32:42;;;;;;;0.38;0.38;;;22.90;99.90;;;;;;5088970;28;20238;-72
2021/07/16 06:35:08;;;;;;;0.90;0.73;;;22.70;99.90;;;;;;5089015;28;20159;-74
2021/07/16 06:37:36;;;;;;;0.13;0.13;;;22.70;99.90;;;;;;5087429;28;20163;-74
2021/07/16 06:40:03;;;;;;;0.63;0.63;;;22.70;99.90;;;;;;5087253;28;20256;-73
2021/07/16 06:42:29;;;;;;;0.98;0.90;;;22.80;99.90;;;;;;5088594;28;20162;-73
2021/07/16 06:44:55;;;;;;;0.17;0.17;;;23.00;99.90;;;;;;5087898;28;20207;-74
2021/07/16 06:47:21;;;;;;;0.20;0.20;;;23.00;99.90;;;;;;5078931;28;20190;-74
2021/07/16 06:49:47;;;;;;;0.73;0.73;;;22.80;99.90;;;;;;5080997;28;20214;-73
2021/07/16 06:52:13;;;;;;;0.35;0.20;;;23.00;99.90;;;;;;5088955;28;20176;-73
2021/07/16 06:54:39;;;;;;;0.10;0.10;;;23.10;99.90;;;;;;5090450;28;20156;-73
2021/07/16 06:57:06;;;;;;;0.70;0.70;;;23.10;99.90;;;;;;5088540;28;20175;-74
2021/07/16 06:59:31;;;;;;;0.73;0.73;;;23.10;99.90;;;;;;5086004;28;20203;-73
2021/07/16 07:01:57;;;;;;;0.20;0.20;;;23.00;99.90;;;;;;5074295;28;20184;-74
2021/07/16 07:04:23;;;;;;;3.42;0.35;;;23.00;99.90;;;;;;5069874;28;20233;-74
2021/07/16 07:06:50;;;;;;;10.40;1.50;;;23.00;99.90;;;;;;5073522;28;20200;-74
2021/07/16 07:09:17;;;;;;;0.20;0.20;;;23.20;99.90;;;;;;5078659;28;20174;-74
2021/07/16 07:11:43;;;;;;;0.20;0.20;;;23.40;99.90;;;;;;5073913;28;20214;-74
2021/07/16 07:14:09;;;;;;;0.28;0.28;;;23.50;99.90;;;;;;5068580;28;20184;-74
2021/07/16 07:16:35;;;;;;;0.20;0.20;;;23.50;99.90;;;;;;5086012;28;20175;-73
2021/07/16 07:19:01;;;;;;;0.30;0.30;;;23.50;99.90;;;;;;5071218;28;20198;-72
2021/07/16 07:21:27;;;;;;;1.38;0.90;;;23.60;99.90;;;;;;5068009;28;20661;-73
2021/07/16 07:23:53;;;;;;;0.10;0.10;;;23.80;99.90;;;;;;5068460;28;20206;-73
2021/07/16 07:26:19;;;;;;;0.15;0.15;;;23.70;99.90;;;;;;5069006;28;20622;-73
2021/07/16 07:28:45;;;;;;;0.20;0.20;;;23.90;99.90;;;;;;5069205;28;20278;-73
2021/07/16 07:31:11;;;;;;;0.73;0.73;;;23.80;99.90;;;;;;5069466;28;20664;-73
2021/07/16 07:33:37;;;;;;;0.70;0.70;;;23.70;99.90;;;;;;5067988;28;20187;-74
2021/07/16 07:36:03;;;;;;;2.55;0.75;;;23.80;99.90;;;;;;5067677;28;20192;-74
2021/07/16 07:38:31;;;;;;;0.70;0.70;;;23.80;99.90;;;;;;5079933;28;20240;-73
2021/07/16 07:40:58;;;;;;;0.43;0.43;;;23.60;99.90;;;;;;5083920;28;20172;-71
2021/07/16 07:43:24;;;;;;;0.25;0.25;;;23.90;99.90;;;;;;5069990;28;20168;-72
2021/07/16 07:45:49;;;;;;;1.05;0.80;;;24.20;99.90;;;;;;5084188;28;20294;-73
2021/07/16 07:48:15;;;;;;;0.35;0.32;;;24.30;99.90;;;;;;5083567;28;20171;-72
2021/07/16 07:50:41;;;;;;;0.57;0.57;;;24.20;99.90;;;;;;5070476;28;20172;-73
2021/07/16 07:53:07;;;;;;;0.32;0.25;;;24.40;99.90;;;;;;5068836;28;20163;-72
2021/07/16 07:55:33;;;;;;;0.30;0.30;;;24.50;99.90;;;;;;5080773;28;20195;-72
2021/07/16 07:57:59;;;;;;;0.80;0.60;;;24.70;99.90;;;;;;5087204;28;20227;-72
2021/07/16 08:00:27;;;;;;;0.57;0.50;;;25.00;99.90;;;;;;5088770;28;20216;-72
2021/07/16 08:02:54;;;;;;;0.57;0.57;;;25.50;99.90;;;;;;5088737;28;20167;-73
2021/07/16 08:05:20;;;;;;;1.65;0.50;;;25.80;99.90;;;;;;5087200;28;20233;-73
2021/07/16 08:07:45;;;;;;;0.35;0.35;;;26.00;99.90;;;;;;5088391;28;20156;-73
2021/07/16 08:10:17;;;;;;;0.30;0.30;;;26.20;99.90;;;;;;5089113;28;20162;-73
2021/07/16 08:12:45;;;;;;;0.15;0.15;;;26.60;99.90;;;;;;5088835;28;20163;-73
2021/07/16 08:15:13;;;;;;;0.98;0.88;;;27.60;99.90;;;;;;5088637;28;20201;-74
2021/07/16 08:17:39;;;;;;;0.68;0.32;;;28.00;99.90;;;;;;5087337;28;20205;-73
2021/07/16 08:20:10;;;;;;;0.60;0.60;;;28.30;99.90;;;;;;5088884;28;20225;-74
2021/07/16 08:22:38;;;;;;;0.40;0.40;;;28.80;99.90;;;;;;5086471;28;20206;-73
2021/07/16 08:25:05;;;;;;;0.28;0.28;;;29.20;99.90;;;;;;5090141;28;20199;-72
2021/07/16 08:27:31;;;;;;;1.95;1.08;;;29.70;99.90;;;;;;5087646;28;20183;-74
2021/07/16 08:29:57;;;;;;;0.60;0.60;;;29.70;99.90;;;;;;5090937;28;20160;-73
2021/07/16 08:32:23;;;;;;;1.40;0.38;;;29.30;99.90;;;;;;5103073;28;20263;-74
2021/07/16 08:34:49;;;;;;;0.30;0.30;;;29.50;99.90;;;;;;5088562;28;20627;-74
2021/07/16 08:37:15;;;;;;;0.47;0.30;;;29.60;99.90;;;;;;5087979;28;20175;-72
2021/07/16 08:39:41;;;;;;;1.60;0.98;;;28.70;99.90;;;;;;5067792;28;20266;-72
2021/07/16 08:42:08;;;;;;;0.80;0.80;;;29.40;99.90;;;;;;5075285;28;20270;-72
2021/07/16 08:44:37;;;;;;;2.78;0.73;;;29.10;99.90;;;;;;5086820;28;20191;-73
2021/07/16 08:47:04;;;;;;;0.20;0.20;;;28.50;99.90;;;;;;5087427;28;20205;-72
2021/07/16 08:49:30;;;;;;;0.50;0.50;;;28.40;99.90;;;;;;5088508;28;20170;-71
2021/07/16 08:51:57;;;;;;;0.30;0.30;;;28.60;99.90;;;;;;5088611;28;20155;-72
2021/07/16 08:54:23;;;;;;;2.05;0.50;;;28.50;99.90;;;;;;5086958;28;20248;-72
2021/07/16 08:56:49;;;;;;;0.25;0.17;;;27.70;99.90;;;;;;5087924;28;20155;-71
2021/07/16 08:59:16;;;;;;;0.70;0.50;;;27.30;99.90;;;;;;5086740;28;20174;-70
2021/07/16 09:01:44;;;;;;;0.13;0.13;;;27.20;99.90;;;;;;5088209;28;20175;-71
2021/07/16 09:04:10;;;;;;;0.68;0.68;;;27.00;99.90;;;;;;5088175;28;20628;-71
2021/07/16 09:06:52;;;;;;;0.25;0.25;;;27.20;99.90;;;;;;5088313;28;20278;-72
2021/07/16 09:09:25;;;;;;;1.35;1.20;;;27.30;99.90;;;;;;5092146;28;20160;-72
2021/07/16 09:11:55;;;;;;;2.17;0.47;;;27.60;99.90;;;;;;5091884;28;20171;-71
2021/07/16 09:14:29;;;;;;;0.50;0.35;;;27.90;99.90;;;;;;5092234;28;20198;-70
2021/07/16 09:17:16;;;;;;;1.15;0.82;;;27.40;99.90;;;;;;5090284;28;20194;-71
2021/07/16 09:19:47;;;;;;;0.68;0.60;;;26.70;99.90;;;;;;5090405;28;20171;-70
2021/07/16 09:22:15;;;;;;;0.25;0.25;;;27.00;99.90;;;;;;5091814;28;20176;-71
2021/07/16 09:25:03;;;;;;;0.40;0.40;;;27.30;99.90;;;;;;5092153;28;20183;-71
2021/07/16 09:27:40;;;;;;;0.40;0.32;;;27.30;99.90;;;;;;5091788;28;20700;-71
2021/07/16 09:30:27;;;;;;;0.57;0.57;;;26.80;99.90;;;;;;5091826;28;20171;-74
2021/07/16 09:32:54;;;;;;;0.10;0.10;;;26.10;99.90;;;;;;5091869;28;20247;-73
2021/07/16 09:35:23;;;;;;;0.25;0.25;;;26.00;99.90;;;;;;5092037;28;20179;-72
2021/07/16 09:37:59;;;;;;;2.13;0.20;;;25.90;99.90;;;;;;5090452;28;20598;-72
2021/07/16 09:40:27;;;;;;;0.63;0.63;;;26.10;99.90;;;;;;5090376;28;20194;-73
2021/07/16 09:43:17;;;;;;;0.30;0.30;;;26.30;99.90;;;;;;5090438;28;20185;-73
2021/07/16 09:46:01;;;;;;;0.10;0.10;;;26.20;99.90;;;;;;5089566;28;20211;-80
2021/07/16 09:48:34;;;;;;;0.45;0.45;;;25.90;99.90;;;;;;5078909;28;20183;-78
2021/07/16 09:51:34;;;;;;;0.30;0.30;;;26.20;99.90;;;;;;5075911;28;20186;-79
2021/07/16 09:54:06;;;;;;;0.95;0.88;;;26.60;99.90;;;;;;5071539;28;20184;-77
2021/07/16 09:56:36;;;;;;;0.10;0.10;;;26.50;99.90;;;;;;5090295;28;20226;-76
2021/07/16 09:59:13;;;;;;;0.20;0.20;;;26.50;99.90;;;;;;5089924;28;20191;-81
2021/07/16 10:01:44;;;;;;;0.22;0.22;;;26.60;99.90;;;;;;5090971;28;20192;-75
2021/07/16 10:04:21;;;;;;;0.90;0.60;;;26.40;99.90;;;;;;5089503;28;20199;-75
2021/07/16 10:06:52;;;;;;;0.47;0.47;;;26.40;99.90;;;;;;5087898;28;20214;-74
2021/07/16 10:09:20;;;;;;;0.20;0.20;;;26.50;99.90;;;;;;5072453;28;20176;-75
2021/07/16 10:11:52;;;;;;;0.35;0.35;;;26.40;99.90;;;;;;5083415;28;20197;-75
2021/07/16 10:14:19;;;;;;;0.28;0.28;;;26.30;99.90;;;;;;5077177;28;20184;-75
2021/07/16 10:16:51;;;;;;;0.60;0.60;;;25.90;99.90;;;;;;5090289;28;20175;-72
2021/07/16 10:19:17;;;;;;;9.13;0.47;;;25.70;99.90;;;;;;5089309;28;20170;-72
2021/07/16 10:21:45;;;;;;;0.30;0.30;;;25.90;99.90;;;;;;5084789;28;20416;-72
2021/07/16 10:24:13;;;;;;;0.28;0.22;;;26.40;99.90;;;;;;5089779;28;20464;-71
2021/07/16 10:26:40;;;;;;;0.20;0.20;;;26.60;99.90;;;;;;5089474;28;20197;-72
2021/07/16 10:29:38;;;;;;;1.65;0.68;;;26.60;99.90;;;;;;5089713;28;20159;-74
2021/07/16 10:32:06;;;;;;;0.35;0.25;;;26.70;99.90;;;;;;5085741;28;20293;-75
2021/07/16 10:34:35;;;;;;;0.45;0.35;;;27.00;99.90;;;;;;5085151;28;20183;-74
2021/07/16 10:37:05;;;;;;;0.22;0.22;;;27.40;99.90;;;;;;5089370;28;20163;-75
2021/07/16 10:39:58;;;;;;;0.03;0.03;;;27.10;99.90;;;;;;5089400;28;20167;-73
2021/07/16 10:42:27;;;;;;;0.75;0.35;;;26.60;99.90;;;;;;5089633;28;20191;-74
2021/07/16 10:44:58;;;;;;;0.90;0.57;;;26.80;99.90;;;;;;5088918;28;20257;-74
2021/07/16 10:47:42;;;;;;;0.50;0.50;;;27.50;99.90;;;;;;5089506;28;20220;-75
2021/07/16 10:50:32;;;;;;;0.20;0.20;;;27.50;99.90;;;;;;5089727;28;20244;-75
2021/07/16 10:52:59;;;;;;;0.30;0.30;;;28.60;99.90;;;;;;5090561;28;20160;-75
2021/07/16 10:55:37;;;;;;;0.20;0.20;;;30.00;99.90;;;;;;5086493;28;20191;-74
2021/07/16 10:58:22;;;;;;;0.65;0.50;;;30.90;99.90;;;;;;5069181;28;20163;-74
2021/07/16 11:00:56;;;;;;;0.43;0.43;;;31.10;99.90;;;;;;5081706;28;20206;-74
2021/07/16 11:03:37;;;;;;;0.50;0.50;;;30.70;99.90;;;;;;5090075;28;20173;-74
2021/07/16 11:06:03;;;;;;;0.73;0.73;;;30.20;99.90;;;;;;5088594;28;20262;-74
2021/07/16 11:08:35;;;;;;;0.28;0.28;;;29.90;99.90;;;;;;5090037;28;20171;-74
2021/07/16 11:11:02;;;;;;;0.28;0.28;;;28.70;99.90;;;;;;5069019;28;20215;-75
2021/07/16 11:13:59;;;;;;;0.25;0.25;;;27.80;99.90;;;;;;5079981;28;20586;-74
2021/07/16 11:16:26;;;;;;;0.50;0.50;;;27.50;99.90;;;;;;5062359;28;20202;-71
2021/07/16 11:19:03;;;;;;;0.60;0.60;;;27.60;99.90;;;;;;5069674;28;20163;-71
2021/07/16 11:21:52;;;;;;;0.08;0.08;;;27.60;99.90;;;;;;5069702;28;20265;-71
2021/07/16 11:24:18;;;;;;;0.15;0.15;;;26.90;99.90;;;;;;5069807;28;20159;-72
2021/07/16 11:26:53;;;;;;;0.20;0.20;;;26.30;99.90;;;;;;5069649;28;20192;-71
2021/07/16 11:29:21;;;;;;;0.43;0.43;;;26.70;99.90;;;;;;5068882;28;20159;-72
2021/07/16 11:31:47;;;;;;;0.43;0.43;;;26.80;99.90;;;;;;5087418;28;20219;-73
2021/07/16 11:34:22;;;;;;;0.30;0.30;;;26.50;99.90;;;;;;5089426;28;20151;-71
2021/07/16 11:36:49;;;;;;;0.43;0.43;;;26.50;99.90;;;;;;5086787;28;20437;-72
2021/07/16 11:39:32;;;;;;;0.20;0.20;;;26.60;99.90;;;;;;5089531;28;20191;-71
2021/07/16 11:41:59;;;;;;;0.28;0.28;;;26.80;99.90;;;;;;5089402;28;20294;-71
2021/07/16 11:44:43;;;;;;;0.22;0.22;;;27.00;99.90;;;;;;5088097;28;20178;-72
2021/07/16 11:47:21;;;;;;;0.25;0.25;;;26.60;99.90;;;;;;5089278;28;20199;-71
2021/07/16 11:49:53;;;;;;;0.20;0.20;;;26.20;99.90;;;;;;5089437;28;20159;-70
2021/07/16 11:52:26;;;;;;;0.30;0.30;;;26.40;99.90;;;;;;5089298;28;20236;-71
2021/07/16 11:54:54;;;;;;;0.45;0.30;;;27.00;99.90;;;;;;5077718;28;20167;-72
2021/07/16 11:57:21;;;;;;;24.85;1.02;;;26.60;99.90;;;;;;5069123;28;20191;-70
2021/07/16 11:59:49;;;;;;;0.20;0.20;;;26.70;99.90;;;;;;5074352;28;20175;-72
2021/07/16 12:02:18;;;;;;;0.28;0.28;;;26.70;99.90;;;;;;5088931;28;20226;-72
2021/07/16 12:04:45;;;;;;;0.15;0.15;;;27.30;99.90;;;;;;5089120;28;20159;-71
2021/07/16 12:07:12;;;;;;;0.15;0.13;;;27.70;99.90;;;;;;5088874;28;20183;-72
2021/07/16 12:09:42;;;;;;;0.90;0.57;;;28.30;99.90;;;;;;5089106;28;20159;-72
2021/07/16 12:12:28;;;;;;;0.75;0.40;;;28.50;99.90;;;;;;5087578;28;20228;-71
2021/07/16 12:15:06;;;;;;;0.45;0.45;;;28.10;99.90;;;;;;5088649;28;20183;-71
2021/07/16 12:17:38;;;;;;;0.10;0.10;;;28.10;99.90;;;;;;5069845;28;20207;-70
2021/07/16 12:20:08;;;;;;;0.52;0.52;;;28.50;99.90;;;;;;5068921;28;20226;-70
2021/07/16 12:22:35;;;;;;;10.63;0.52;;;28.90;99.90;;;;;;5068730;28;20213;-72
2021/07/16 12:25:05;;;;;;;0.10;0.10;;;29.00;99.90;;;;;;5067453;28;20186;-72
2021/07/16 12:27:31;;;;;;;1.27;0.57;;;28.70;99.90;;;;;;5068613;28;20191;-72
2021/07/16 12:30:07;;;;;;;0.30;0.30;;;29.00;99.90;;;;;;5068542;28;20182;-73
2021/07/16 12:32:45;;;;;;;0.47;0.47;;;27.90;99.90;;;;;;5076986;28;20155;-70
2021/07/16 12:35:23;;;;;;;0.45;0.30;;;27.40;99.90;;;;;;5088285;28;20207;-71
2021/07/16 12:37:52;;;;;;;0.82;0.82;;;27.10;99.90;;;;;;5070981;28;20252;-69
2021/07/16 12:40:22;;;;;;;0.32;0.30;;;27.00;99.90;;;;;;5081270;28;20175;-71
2021/07/16 12:43:09;;;;;;;0.20;0.20;;;27.10;99.90;;;;;;5082289;28;20178;-71
2021/07/16 12:45:47;;;;;;;0.65;0.47;;;27.50;99.90;;;;;;5082538;28;20247;-71
2021/07/16 12:48:33;;;;;;;0.55;0.32;;;27.70;99.90;;;;;;5086777;28;20178;-68
2021/07/16 12:51:10;;;;;;;0.50;0.50;;;27.40;99.90;;;;;;5087287;28;20164;-69
2021/07/16 12:53:45;;;;;;;0.47;0.47;;;27.40;99.90;;;;;;5088133;28;20246;-74
2021/07/16 12:56:22;;;;;;;0.28;0.20;;;27.50;99.90;;;;;;5088077;28;20202;-71